Thorntown, Indiana
Current Conditions -  °F | °C
As of 9:15 AM on Wednesday 28 Jan 2015 (Local Time) from KTYQ Reporting Station
Clear Clear  
Wind Chill: -10°   Ceiling: Unl
Heat Index: -6°   Visibility: 7mi
Dew Point: -8°   Wind: 6mph
Humidity: 82%   Direction: 160°SSE
Pressure: 30.33"   Gusts: NA
Location:  40.13°N, 86.61°W
Report Text: KTYQ 281415Z AUTO 16005KT 7SM CLR M06/M08 A3033 RMK AO2 T10561083
Loading
Personal Weather Stations






























Interactive Weather Map New forecast layout! Learn more

10-Day Weather Forecast

Advertisements
Track Severe Weather on mobile